sensor_id;sensor_type;location;lat;lon;timestamp;P1;durP1;ratioP1;P2;durP2;ratioP2
13085;SDS011;6609;49.882;8.664;2022-11-15T00:01:06;3.83;;;2.83;;
13085;SDS011;6609;49.882;8.664;2022-11-15T00:03:33;5.17;;;3.10;;
13085;SDS011;6609;49.882;8.664;2022-11-15T00:06:01;4.83;;;2.27;;
13085;SDS011;6609;49.882;8.664;2022-11-15T00:08:28;4.40;;;2.77;;
13085;SDS011;6609;49.882;8.664;2022-11-15T00:10:58;6.47;;;2.90;;
13085;SDS011;6609;49.882;8.664;2022-11-15T00:13:26;5.00;;;3.07;;
13085;SDS011;6609;49.882;8.664;2022-11-15T00:15:56;5.73;;;2.83;;
13085;SDS011;6609;49.882;8.664;2022-11-15T00:18:23;6.77;;;3.43;;
13085;SDS011;6609;49.882;8.664;2022-11-15T00:20:50;5.93;;;2.67;;
13085;SDS011;6609;49.882;8.664;2022-11-15T00:23:17;3.17;;;2.63;;
13085;SDS011;6609;49.882;8.664;2022-11-15T00:25:43;4.23;;;3.17;;
13085;SDS011;6609;49.882;8.664;2022-11-15T00:28:12;4.90;;;2.80;;
13085;SDS011;6609;49.882;8.664;2022-11-15T00:30:38;4.50;;;2.83;;
13085;SDS011;6609;49.882;8.664;2022-11-15T00:33:05;6.00;;;2.57;;
13085;SDS011;6609;49.882;8.664;2022-11-15T00:35:32;6.07;;;2.83;;
13085;SDS011;6609;49.882;8.664;2022-11-15T00:38:00;3.73;;;2.80;;
13085;SDS011;6609;49.882;8.664;2022-11-15T00:40:28;4.93;;;2.63;;
13085;SDS011;6609;49.882;8.664;2022-11-15T00:42:55;5.13;;;2.80;;
13085;SDS011;6609;49.882;8.664;2022-11-15T00:45:23;6.00;;;3.23;;
13085;SDS011;6609;49.882;8.664;2022-11-15T00:47:51;6.23;;;2.97;;
13085;SDS011;6609;49.882;8.664;2022-11-15T00:50:18;4.10;;;2.80;;
13085;SDS011;6609;49.882;8.664;2022-11-15T00:52:45;4.87;;;2.60;;
13085;SDS011;6609;49.882;8.664;2022-11-15T00:55:13;4.83;;;3.00;;
13085;SDS011;6609;49.882;8.664;2022-11-15T00:57:40;4.60;;;2.47;;
13085;SDS011;6609;49.882;8.664;2022-11-15T01:00:08;5.33;;;2.40;;
13085;SDS011;6609;49.882;8.664;2022-11-15T01:02:38;6.73;;;2.80;;
13085;SDS011;6609;49.882;8.664;2022-11-15T01:05:05;4.00;;;2.60;;
13085;SDS011;6609;49.882;8.664;2022-11-15T01:07:32;6.70;;;3.53;;
13085;SDS011;6609;49.882;8.664;2022-11-15T01:09:59;7.10;;;2.73;;
13085;SDS011;6609;49.882;8.664;2022-11-15T01:12:26;5.50;;;3.00;;
13085;SDS011;6609;49.882;8.664;2022-11-15T01:14:53;5.17;;;3.17;;
13085;SDS011;6609;49.882;8.664;2022-11-15T01:17:20;4.83;;;2.77;;
13085;SDS011;6609;49.882;8.664;2022-11-15T01:19:48;4.90;;;2.70;;
13085;SDS011;6609;49.882;8.664;2022-11-15T01:22:15;5.50;;;2.67;;
13085;SDS011;6609;49.882;8.664;2022-11-15T01:24:42;3.33;;;2.57;;
13085;SDS011;6609;49.882;8.664;2022-11-15T01:27:08;6.17;;;2.60;;
13085;SDS011;6609;49.882;8.664;2022-11-15T01:29:35;6.50;;;2.97;;
13085;SDS011;6609;49.882;8.664;2022-11-15T01:32:02;5.17;;;3.00;;
13085;SDS011;6609;49.882;8.664;2022-11-15T01:34:29;6.47;;;2.90;;
13085;SDS011;6609;49.882;8.664;2022-11-15T01:36:57;4.73;;;3.20;;
13085;SDS011;6609;49.882;8.664;2022-11-15T01:39:24;5.27;;;2.40;;
13085;SDS011;6609;49.882;8.664;2022-11-15T01:41:51;4.23;;;2.73;;
13085;SDS011;6609;49.882;8.664;2022-11-15T01:47:20;4.83;;;2.77;;
13085;SDS011;6609;49.882;8.664;2022-11-15T01:49:51;4.53;;;3.03;;
13085;SDS011;6609;49.882;8.664;2022-11-15T01:52:24;5.70;;;2.80;;
13085;SDS011;6609;49.882;8.664;2022-11-15T01:54:53;6.03;;;2.77;;
13085;SDS011;6609;49.882;8.664;2022-11-15T01:57:24;6.77;;;3.10;;
13085;SDS011;6609;49.882;8.664;2022-11-15T01:59:51;3.57;;;2.60;;
13085;SDS011;6609;49.882;8.664;2022-11-15T02:02:17;7.67;;;3.57;;
13085;SDS011;6609;49.882;8.664;2022-11-15T02:04:44;4.53;;;2.80;;
13085;SDS011;6609;49.882;8.664;2022-11-15T02:07:13;3.67;;;2.70;;
13085;SDS011;6609;49.882;8.664;2022-11-15T02:09:44;4.13;;;2.67;;
13085;SDS011;6609;49.882;8.664;2022-11-15T02:12:12;4.77;;;3.00;;
13085;SDS011;6609;49.882;8.664;2022-11-15T02:14:41;4.43;;;2.83;;
13085;SDS011;6609;49.882;8.664;2022-11-15T02:17:13;8.63;;;3.67;;
13085;SDS011;6609;49.882;8.664;2022-11-15T02:19:55;7.73;;;3.20;;
13085;SDS011;6609;49.882;8.664;2022-11-15T02:22:42;3.60;;;2.73;;
13085;SDS011;6609;49.882;8.664;2022-11-15T02:25:27;5.23;;;2.80;;
13085;SDS011;6609;49.882;8.664;2022-11-15T02:28:20;6.13;;;2.97;;
13085;SDS011;6609;49.882;8.664;2022-11-15T02:31:07;5.77;;;2.63;;
13085;SDS011;6609;49.882;8.664;2022-11-15T02:33:41;4.00;;;2.73;;
13085;SDS011;6609;49.882;8.664;2022-11-15T02:36:13;5.07;;;3.00;;
13085;SDS011;6609;49.882;8.664;2022-11-15T02:38:46;4.07;;;2.70;;
13085;SDS011;6609;49.882;8.664;2022-11-15T02:41:22;5.27;;;3.20;;
13085;SDS011;6609;49.882;8.664;2022-11-15T02:43:55;5.47;;;2.83;;
13085;SDS011;6609;49.882;8.664;2022-11-15T02:46:27;5.63;;;3.07;;
13085;SDS011;6609;49.882;8.664;2022-11-15T02:49:16;5.93;;;2.57;;
13085;SDS011;6609;49.882;8.664;2022-11-15T02:51:44;3.13;;;2.60;;
13085;SDS011;6609;49.882;8.664;2022-11-15T02:54:15;3.00;;;2.33;;
13085;SDS011;6609;49.882;8.664;2022-11-15T02:56:45;4.97;;;2.77;;
13085;SDS011;6609;49.882;8.664;2022-11-15T02:59:13;5.70;;;2.47;;
13085;SDS011;6609;49.882;8.664;2022-11-15T03:01:54;4.43;;;2.40;;
13085;SDS011;6609;49.882;8.664;2022-11-15T03:04:29;8.90;;;2.83;;
13085;SDS011;6609;49.882;8.664;2022-11-15T03:07:05;6.73;;;3.17;;
13085;SDS011;6609;49.882;8.664;2022-11-15T03:09:39;4.00;;;2.67;;
13085;SDS011;6609;49.882;8.664;2022-11-15T03:12:10;3.53;;;2.80;;
13085;SDS011;6609;49.882;8.664;2022-11-15T03:14:43;5.63;;;2.90;;
13085;SDS011;6609;49.882;8.664;2022-11-15T03:17:21;3.40;;;2.80;;
13085;SDS011;6609;49.882;8.664;2022-11-15T03:19:52;7.00;;;2.70;;
13085;SDS011;6609;49.882;8.664;2022-11-15T03:22:22;4.17;;;3.10;;
13085;SDS011;6609;49.882;8.664;2022-11-15T03:24:52;8.53;;;2.80;;
13085;SDS011;6609;49.882;8.664;2022-11-15T03:27:21;5.13;;;2.63;;
13085;SDS011;6609;49.882;8.664;2022-11-15T03:29:51;10.53;;;2.80;;
13085;SDS011;6609;49.882;8.664;2022-11-15T03:32:24;7.47;;;3.30;;
13085;SDS011;6609;49.882;8.664;2022-11-15T03:34:55;7.93;;;2.80;;
13085;SDS011;6609;49.882;8.664;2022-11-15T03:37:26;4.30;;;2.77;;
13085;SDS011;6609;49.882;8.664;2022-11-15T03:39:58;7.00;;;3.03;;
13085;SDS011;6609;49.882;8.664;2022-11-15T03:42:27;7.37;;;3.47;;
13085;SDS011;6609;49.882;8.664;2022-11-15T03:44:58;8.37;;;3.80;;
13085;SDS011;6609;49.882;8.664;2022-11-15T03:47:31;4.20;;;3.53;;
13085;SDS011;6609;49.882;8.664;2022-11-15T03:50:01;4.53;;;3.07;;
13085;SDS011;6609;49.882;8.664;2022-11-15T03:52:33;8.60;;;3.60;;
13085;SDS011;6609;49.882;8.664;2022-11-15T03:55:01;6.67;;;3.70;;
13085;SDS011;6609;49.882;8.664;2022-11-15T03:57:30;7.00;;;3.23;;
13085;SDS011;6609;49.882;8.664;2022-11-15T03:59:57;6.27;;;3.47;;
13085;SDS011;6609;49.882;8.664;2022-11-15T04:02:23;6.27;;;3.43;;
13085;SDS011;6609;49.882;8.664;2022-11-15T04:04:51;4.90;;;3.17;;
13085;SDS011;6609;49.882;8.664;2022-11-15T04:07:18;7.83;;;3.63;;
13085;SDS011;6609;49.882;8.664;2022-11-15T04:09:45;5.37;;;3.17;;
13085;SDS011;6609;49.882;8.664;2022-11-15T04:12:30;5.63;;;4.53;;
13085;SDS011;6609;49.882;8.664;2022-11-15T04:14:58;5.67;;;3.57;;
13085;SDS011;6609;49.882;8.664;2022-11-15T04:17:35;7.60;;;3.97;;
13085;SDS011;6609;49.882;8.664;2022-11-15T04:20:06;7.43;;;3.57;;
13085;SDS011;6609;49.882;8.664;2022-11-15T04:22:53;5.13;;;3.77;;
13085;SDS011;6609;49.882;8.664;2022-11-15T04:25:37;9.87;;;4.00;;
13085;SDS011;6609;49.882;8.664;2022-11-15T04:28:04;5.87;;;3.50;;
13085;SDS011;6609;49.882;8.664;2022-11-15T04:30:31;8.23;;;3.43;;
13085;SDS011;6609;49.882;8.664;2022-11-15T04:32:58;11.20;;;3.10;;
13085;SDS011;6609;49.882;8.664;2022-11-15T04:35:26;6.53;;;3.60;;
13085;SDS011;6609;49.882;8.664;2022-11-15T04:37:53;5.77;;;3.40;;
13085;SDS011;6609;49.882;8.664;2022-11-15T04:40:18;6.40;;;3.60;;
13085;SDS011;6609;49.882;8.664;2022-11-15T04:42:45;9.63;;;4.10;;
13085;SDS011;6609;49.882;8.664;2022-11-15T04:45:12;7.63;;;3.67;;
13085;SDS011;6609;49.882;8.664;2022-11-15T04:47:39;5.20;;;3.07;;
13085;SDS011;6609;49.882;8.664;2022-11-15T04:50:06;7.73;;;3.20;;
13085;SDS011;6609;49.882;8.664;2022-11-15T04:52:34;4.10;;;3.23;;
13085;SDS011;6609;49.882;8.664;2022-11-15T04:55:01;5.90;;;3.33;;
13085;SDS011;6609;49.882;8.664;2022-11-15T04:57:28;5.40;;;3.27;;
13085;SDS011;6609;49.882;8.664;2022-11-15T04:59:54;5.23;;;3.30;;
13085;SDS011;6609;49.882;8.664;2022-11-15T05:02:21;6.20;;;4.40;;
13085;SDS011;6609;49.882;8.664;2022-11-15T05:04:48;9.97;;;4.90;;
13085;SDS011;6609;49.882;8.664;2022-11-15T05:07:13;7.27;;;3.90;;
13085;SDS011;6609;49.882;8.664;2022-11-15T05:09:42;7.60;;;4.47;;
13085;SDS011;6609;49.882;8.664;2022-11-15T05:12:08;6.97;;;4.87;;
13085;SDS011;6609;49.882;8.664;2022-11-15T05:14:35;7.83;;;4.10;;
13085;SDS011;6609;49.882;8.664;2022-11-15T05:17:02;9.10;;;3.97;;
13085;SDS011;6609;49.882;8.664;2022-11-15T05:19:28;7.40;;;4.10;;
13085;SDS011;6609;49.882;8.664;2022-11-15T05:21:55;6.93;;;4.23;;
13085;SDS011;6609;49.882;8.664;2022-11-15T05:24:22;5.03;;;3.27;;
13085;SDS011;6609;49.882;8.664;2022-11-15T05:26:50;7.63;;;4.70;;
13085;SDS011;6609;49.882;8.664;2022-11-15T05:29:16;7.83;;;4.17;;
13085;SDS011;6609;49.882;8.664;2022-11-15T05:31:43;6.77;;;3.77;;
13085;SDS011;6609;49.882;8.664;2022-11-15T05:34:10;5.43;;;3.50;;
13085;SDS011;6609;49.882;8.664;2022-11-15T05:36:37;6.53;;;3.63;;
13085;SDS011;6609;49.882;8.664;2022-11-15T05:39:07;9.00;;;3.60;;
13085;SDS011;6609;49.882;8.664;2022-11-15T05:41:35;7.93;;;4.03;;
13085;SDS011;6609;49.882;8.664;2022-11-15T05:44:07;7.40;;;3.93;;
13085;SDS011;6609;49.882;8.664;2022-11-15T05:46:37;8.90;;;3.90;;
13085;SDS011;6609;49.882;8.664;2022-11-15T05:49:06;7.27;;;3.93;;
13085;SDS011;6609;49.882;8.664;2022-11-15T05:51:37;7.10;;;3.50;;
13085;SDS011;6609;49.882;8.664;2022-11-15T05:54:04;6.13;;;4.00;;
13085;SDS011;6609;49.882;8.664;2022-11-15T05:56:31;5.70;;;3.70;;
13085;SDS011;6609;49.882;8.664;2022-11-15T05:58:58;6.03;;;3.67;;
13085;SDS011;6609;49.882;8.664;2022-11-15T06:01:27;8.67;;;4.40;;
13085;SDS011;6609;49.882;8.664;2022-11-15T06:03:54;5.93;;;3.70;;
13085;SDS011;6609;49.882;8.664;2022-11-15T06:06:23;8.87;;;3.97;;
13085;SDS011;6609;49.882;8.664;2022-11-15T06:08:50;5.47;;;3.43;;
13085;SDS011;6609;49.882;8.664;2022-11-15T06:11:17;6.07;;;3.60;;
13085;SDS011;6609;49.882;8.664;2022-11-15T06:13:43;6.87;;;3.67;;
13085;SDS011;6609;49.882;8.664;2022-11-15T06:16:10;6.20;;;3.93;;
13085;SDS011;6609;49.882;8.664;2022-11-15T06:18:38;10.33;;;3.90;;
13085;SDS011;6609;49.882;8.664;2022-11-15T06:21:05;5.63;;;3.70;;
13085;SDS011;6609;49.882;8.664;2022-11-15T06:23:32;7.63;;;3.57;;
13085;SDS011;6609;49.882;8.664;2022-11-15T06:26:00;8.10;;;3.70;;
13085;SDS011;6609;49.882;8.664;2022-11-15T06:28:28;8.57;;;4.13;;
13085;SDS011;6609;49.882;8.664;2022-11-15T06:30:55;7.60;;;3.87;;
13085;SDS011;6609;49.882;8.664;2022-11-15T06:33:22;6.83;;;3.90;;
13085;SDS011;6609;49.882;8.664;2022-11-15T06:35:50;4.10;;;3.50;;
13085;SDS011;6609;49.882;8.664;2022-11-15T06:38:16;5.97;;;3.70;;
13085;SDS011;6609;49.882;8.664;2022-11-15T06:40:43;4.57;;;3.43;;
13085;SDS011;6609;49.882;8.664;2022-11-15T06:43:10;6.80;;;3.47;;
13085;SDS011;6609;49.882;8.664;2022-11-15T06:45:36;6.40;;;3.63;;
13085;SDS011;6609;49.882;8.664;2022-11-15T06:48:03;6.30;;;3.57;;
13085;SDS011;6609;49.882;8.664;2022-11-15T06:50:31;5.77;;;3.60;;
13085;SDS011;6609;49.882;8.664;2022-11-15T06:53:01;9.93;;;3.47;;
13085;SDS011;6609;49.882;8.664;2022-11-15T06:55:28;4.43;;;3.10;;
13085;SDS011;6609;49.882;8.664;2022-11-15T06:57:56;8.10;;;3.60;;
13085;SDS011;6609;49.882;8.664;2022-11-15T07:00:22;5.63;;;2.80;;
13085;SDS011;6609;49.882;8.664;2022-11-15T07:02:49;6.27;;;3.37;;
13085;SDS011;6609;49.882;8.664;2022-11-15T07:05:16;4.10;;;2.80;;
13085;SDS011;6609;49.882;8.664;2022-11-15T07:07:43;3.83;;;2.77;;
13085;SDS011;6609;49.882;8.664;2022-11-15T07:10:17;5.40;;;3.20;;
13085;SDS011;6609;49.882;8.664;2022-11-15T07:12:46;8.43;;;3.10;;
13085;SDS011;6609;49.882;8.664;2022-11-15T07:15:13;4.10;;;2.70;;
13085;SDS011;6609;49.882;8.664;2022-11-15T07:17:40;8.00;;;3.20;;
13085;SDS011;6609;49.882;8.664;2022-11-15T07:20:07;4.67;;;3.13;;
13085;SDS011;6609;49.882;8.664;2022-11-15T07:22:34;5.30;;;3.03;;
13085;SDS011;6609;49.882;8.664;2022-11-15T07:25:01;8.30;;;3.27;;
13085;SDS011;6609;49.882;8.664;2022-11-15T07:27:29;5.33;;;3.10;;
13085;SDS011;6609;49.882;8.664;2022-11-15T07:29:55;4.37;;;2.70;;
13085;SDS011;6609;49.882;8.664;2022-11-15T07:32:23;3.87;;;2.93;;
13085;SDS011;6609;49.882;8.664;2022-11-15T07:34:50;4.53;;;2.90;;
13085;SDS011;6609;49.882;8.664;2022-11-15T07:37:16;5.70;;;3.23;;
13085;SDS011;6609;49.882;8.664;2022-11-15T07:39:43;4.47;;;2.73;;
13085;SDS011;6609;49.882;8.664;2022-11-15T07:42:10;6.40;;;3.90;;
13085;SDS011;6609;49.882;8.664;2022-11-15T07:44:55;5.43;;;3.57;;
13085;SDS011;6609;49.882;8.664;2022-11-15T07:47:22;5.53;;;3.10;;
13085;SDS011;6609;49.882;8.664;2022-11-15T07:49:49;5.47;;;3.17;;
13085;SDS011;6609;49.882;8.664;2022-11-15T07:52:16;4.87;;;3.40;;
13085;SDS011;6609;49.882;8.664;2022-11-15T07:54:42;4.27;;;3.10;;
13085;SDS011;6609;49.882;8.664;2022-11-15T07:57:09;4.83;;;3.73;;
13085;SDS011;6609;49.882;8.664;2022-11-15T07:59:36;7.50;;;3.17;;
13085;SDS011;6609;49.882;8.664;2022-11-15T08:02:04;4.20;;;3.30;;
13085;SDS011;6609;49.882;8.664;2022-11-15T08:04:30;5.60;;;3.40;;
13085;SDS011;6609;49.882;8.664;2022-11-15T08:06:57;4.33;;;2.60;;
13085;SDS011;6609;49.882;8.664;2022-11-15T08:09:24;4.03;;;3.10;;
13085;SDS011;6609;49.882;8.664;2022-11-15T08:11:51;4.67;;;3.10;;
13085;SDS011;6609;49.882;8.664;2022-11-15T08:14:17;7.43;;;2.80;;
13085;SDS011;6609;49.882;8.664;2022-11-15T08:16:47;6.57;;;2.93;;
13085;SDS011;6609;49.882;8.664;2022-11-15T08:19:15;4.93;;;3.00;;
13085;SDS011;6609;49.882;8.664;2022-11-15T08:21:41;3.30;;;2.50;;
13085;SDS011;6609;49.882;8.664;2022-11-15T08:24:09;3.77;;;2.63;;
13085;SDS011;6609;49.882;8.664;2022-11-15T08:26:36;3.43;;;2.67;;
13085;SDS011;6609;49.882;8.664;2022-11-15T08:29:02;4.47;;;3.00;;
13085;SDS011;6609;49.882;8.664;2022-11-15T08:31:29;3.83;;;2.90;;
13085;SDS011;6609;49.882;8.664;2022-11-15T08:33:56;4.57;;;2.83;;
13085;SDS011;6609;49.882;8.664;2022-11-15T08:36:24;5.90;;;3.00;;
13085;SDS011;6609;49.882;8.664;2022-11-15T08:38:50;6.97;;;3.63;;
13085;SDS011;6609;49.882;8.664;2022-11-15T08:41:19;5.87;;;2.80;;
13085;SDS011;6609;49.882;8.664;2022-11-15T08:43:51;5.40;;;2.93;;
13085;SDS011;6609;49.882;8.664;2022-11-15T08:46:18;4.50;;;2.80;;
13085;SDS011;6609;49.882;8.664;2022-11-15T08:48:45;6.30;;;3.07;;
13085;SDS011;6609;49.882;8.664;2022-11-15T08:51:11;4.40;;;2.77;;
13085;SDS011;6609;49.882;8.664;2022-11-15T08:53:40;3.60;;;2.90;;
13085;SDS011;6609;49.882;8.664;2022-11-15T08:56:07;4.37;;;2.60;;
13085;SDS011;6609;49.882;8.664;2022-11-15T08:58:34;5.10;;;3.20;;
13085;SDS011;6609;49.882;8.664;2022-11-15T09:01:01;5.70;;;3.40;;
13085;SDS011;6609;49.882;8.664;2022-11-15T09:03:28;7.30;;;3.60;;
13085;SDS011;6609;49.882;8.664;2022-11-15T09:05:55;6.30;;;4.47;;
13085;SDS011;6609;49.882;8.664;2022-11-15T09:08:22;5.43;;;3.40;;
13085;SDS011;6609;49.882;8.664;2022-11-15T09:10:51;6.47;;;3.83;;
13085;SDS011;6609;49.882;8.664;2022-11-15T09:13:17;5.70;;;3.17;;
13085;SDS011;6609;49.882;8.664;2022-11-15T09:15:44;3.50;;;3.07;;
13085;SDS011;6609;49.882;8.664;2022-11-15T09:18:11;6.07;;;3.40;;
13085;SDS011;6609;49.882;8.664;2022-11-15T09:20:38;9.07;;;3.97;;
13085;SDS011;6609;49.882;8.664;2022-11-15T09:23:04;8.83;;;3.77;;
13085;SDS011;6609;49.882;8.664;2022-11-15T09:25:31;6.50;;;3.93;;
13085;SDS011;6609;49.882;8.664;2022-11-15T09:28:00;4.60;;;3.40;;
13085;SDS011;6609;49.882;8.664;2022-11-15T09:30:26;7.90;;;3.63;;
13085;SDS011;6609;49.882;8.664;2022-11-15T09:32:53;6.10;;;3.40;;
13085;SDS011;6609;49.882;8.664;2022-11-15T09:35:20;6.13;;;3.67;;
13085;SDS011;6609;49.882;8.664;2022-11-15T09:37:46;3.83;;;3.37;;
13085;SDS011;6609;49.882;8.664;2022-11-15T09:40:13;6.40;;;3.97;;
13085;SDS011;6609;49.882;8.664;2022-11-15T09:45:45;4.43;;;3.23;;
13085;SDS011;6609;49.882;8.664;2022-11-15T09:48:26;4.33;;;3.23;;
13085;SDS011;6609;49.882;8.664;2022-11-15T09:51:12;4.40;;;3.33;;
13085;SDS011;6609;49.882;8.664;2022-11-15T09:53:48;5.37;;;3.77;;
13085;SDS011;6609;49.882;8.664;2022-11-15T09:56:19;6.27;;;4.23;;
13085;SDS011;6609;49.882;8.664;2022-11-15T09:58:50;10.20;;;4.80;;
13085;SDS011;6609;49.882;8.664;2022-11-15T10:01:32;6.53;;;3.40;;
13085;SDS011;6609;49.882;8.664;2022-11-15T10:04:05;6.13;;;3.60;;
13085;SDS011;6609;49.882;8.664;2022-11-15T10:06:32;6.53;;;3.53;;
13085;SDS011;6609;49.882;8.664;2022-11-15T10:09:01;6.40;;;3.50;;
13085;SDS011;6609;49.882;8.664;2022-11-15T10:11:34;4.50;;;3.33;;
13085;SDS011;6609;49.882;8.664;2022-11-15T10:14:04;4.67;;;3.30;;
13085;SDS011;6609;49.882;8.664;2022-11-15T10:19:30;6.00;;;3.43;;
13085;SDS011;6609;49.882;8.664;2022-11-15T10:22:05;5.20;;;3.50;;
13085;SDS011;6609;49.882;8.664;2022-11-15T10:24:45;4.77;;;3.00;;
13085;SDS011;6609;49.882;8.664;2022-11-15T10:27:13;6.17;;;3.13;;
13085;SDS011;6609;49.882;8.664;2022-11-15T10:29:43;4.20;;;3.03;;
13085;SDS011;6609;49.882;8.664;2022-11-15T10:32:13;6.13;;;3.43;;
13085;SDS011;6609;49.882;8.664;2022-11-15T10:34:41;4.40;;;3.10;;
13085;SDS011;6609;49.882;8.664;2022-11-15T10:37:08;3.97;;;3.17;;
13085;SDS011;6609;49.882;8.664;2022-11-15T10:39:35;8.50;;;3.63;;
13085;SDS011;6609;49.882;8.664;2022-11-15T10:42:14;4.57;;;2.93;;
13085;SDS011;6609;49.882;8.664;2022-11-15T10:44:44;5.93;;;3.17;;
13085;SDS011;6609;49.882;8.664;2022-11-15T10:50:03;4.87;;;2.83;;
13085;SDS011;6609;49.882;8.664;2022-11-15T10:52:33;4.30;;;3.00;;
13085;SDS011;6609;49.882;8.664;2022-11-15T10:55:12;6.87;;;2.73;;
13085;SDS011;6609;49.882;8.664;2022-11-15T10:57:49;4.90;;;3.03;;
13085;SDS011;6609;49.882;8.664;2022-11-15T11:00:27;4.83;;;2.93;;
13085;SDS011;6609;49.882;8.664;2022-11-15T11:03:01;5.00;;;2.93;;
13085;SDS011;6609;49.882;8.664;2022-11-15T11:05:30;4.90;;;2.73;;
13085;SDS011;6609;49.882;8.664;2022-11-15T11:07:59;6.17;;;2.73;;
13085;SDS011;6609;49.882;8.664;2022-11-15T11:10:28;4.87;;;3.00;;
13085;SDS011;6609;49.882;8.664;2022-11-15T11:12:55;3.47;;;2.50;;
13085;SDS011;6609;49.882;8.664;2022-11-15T11:15:22;5.80;;;3.00;;
13085;SDS011;6609;49.882;8.664;2022-11-15T11:17:57;6.20;;;2.70;;
13085;SDS011;6609;49.882;8.664;2022-11-15T11:20:30;5.93;;;2.97;;
13085;SDS011;6609;49.882;8.664;2022-11-15T11:23:03;6.93;;;2.90;;
13085;SDS011;6609;49.882;8.664;2022-11-15T11:25:49;8.03;;;2.70;;
13085;SDS011;6609;49.882;8.664;2022-11-15T11:28:25;4.37;;;2.57;;
13085;SDS011;6609;49.882;8.664;2022-11-15T11:31:11;5.67;;;2.57;;
13085;SDS011;6609;49.882;8.664;2022-11-15T11:33:50;4.27;;;2.50;;
13085;SDS011;6609;49.882;8.664;2022-11-15T11:36:25;3.93;;;2.27;;
13085;SDS011;6609;49.882;8.664;2022-11-15T11:39:00;3.73;;;2.23;;
13085;SDS011;6609;49.882;8.664;2022-11-15T11:41:45;4.07;;;2.50;;
13085;SDS011;6609;49.882;8.664;2022-11-15T11:44:21;4.53;;;2.50;;
13085;SDS011;6609;49.882;8.664;2022-11-15T11:46:58;2.43;;;2.00;;
13085;SDS011;6609;49.882;8.664;2022-11-15T11:49:30;3.20;;;2.03;;
13085;SDS011;6609;49.882;8.664;2022-11-15T11:52:02;3.50;;;2.10;;
13085;SDS011;6609;49.882;8.664;2022-11-15T11:54:36;2.67;;;1.70;;
13085;SDS011;6609;49.882;8.664;2022-11-15T11:57:12;2.13;;;1.40;;
13085;SDS011;6609;49.882;8.664;2022-11-15T11:59:47;3.33;;;1.77;;
13085;SDS011;6609;49.882;8.664;2022-11-15T12:02:20;1.90;;;1.47;;
13085;SDS011;6609;49.882;8.664;2022-11-15T12:04:56;3.00;;;1.77;;
13085;SDS011;6609;49.882;8.664;2022-11-15T12:07:29;2.13;;;1.60;;
13085;SDS011;6609;49.882;8.664;2022-11-15T12:10:01;3.07;;;1.57;;
13085;SDS011;6609;49.882;8.664;2022-11-15T12:12:39;3.83;;;1.63;;
13085;SDS011;6609;49.882;8.664;2022-11-15T12:15:14;2.03;;;1.30;;
13085;SDS011;6609;49.882;8.664;2022-11-15T12:17:43;1.13;;;0.97;;
13085;SDS011;6609;49.882;8.664;2022-11-15T12:20:17;2.90;;;1.07;;
13085;SDS011;6609;49.882;8.664;2022-11-15T12:22:47;2.40;;;1.40;;
13085;SDS011;6609;49.882;8.664;2022-11-15T12:25:20;2.07;;;1.10;;
13085;SDS011;6609;49.882;8.664;2022-11-15T12:27:50;1.43;;;1.00;;
13085;SDS011;6609;49.882;8.664;2022-11-15T12:30:21;2.00;;;1.20;;
13085;SDS011;6609;49.882;8.664;2022-11-15T12:32:51;1.03;;;0.93;;
13085;SDS011;6609;49.882;8.664;2022-11-15T12:35:26;3.80;;;1.20;;
13085;SDS011;6609;49.882;8.664;2022-11-15T12:37:56;1.50;;;0.97;;
13085;SDS011;6609;49.882;8.664;2022-11-15T12:40:24;2.63;;;1.10;;
13085;SDS011;6609;49.882;8.664;2022-11-15T12:42:57;1.50;;;0.97;;
13085;SDS011;6609;49.882;8.664;2022-11-15T12:45:27;1.33;;;0.90;;
13085;SDS011;6609;49.882;8.664;2022-11-15T12:47:56;3.53;;;1.20;;
13085;SDS011;6609;49.882;8.664;2022-11-15T12:50:58;1.93;;;1.33;;
13085;SDS011;6609;49.882;8.664;2022-11-15T12:53:26;3.77;;;1.30;;
13085;SDS011;6609;49.882;8.664;2022-11-15T12:56:17;1.90;;;0.90;;
13085;SDS011;6609;49.882;8.664;2022-11-15T12:58:47;2.03;;;1.13;;
13085;SDS011;6609;49.882;8.664;2022-11-15T13:04:23;1.03;;;0.80;;
13085;SDS011;6609;49.882;8.664;2022-11-15T13:06:54;1.37;;;1.07;;
13085;SDS011;6609;49.882;8.664;2022-11-15T13:15:33;1.60;;;1.10;;
13085;SDS011;6609;49.882;8.664;2022-11-15T13:20:58;3.90;;;0.80;;
13085;SDS011;6609;49.882;8.664;2022-11-15T13:23:26;0.83;;;0.70;;
13085;SDS011;6609;49.882;8.664;2022-11-15T13:26:10;1.30;;;0.97;;
13085;SDS011;6609;49.882;8.664;2022-11-15T13:28:42;1.70;;;1.00;;
13085;SDS011;6609;49.882;8.664;2022-11-15T13:34:02;2.03;;;0.90;;
13085;SDS011;6609;49.882;8.664;2022-11-15T13:36:39;2.67;;;1.00;;
13085;SDS011;6609;49.882;8.664;2022-11-15T13:39:12;1.77;;;0.93;;
13085;SDS011;6609;49.882;8.664;2022-11-15T13:41:51;1.20;;;0.90;;
13085;SDS011;6609;49.882;8.664;2022-11-15T13:44:19;2.00;;;0.87;;
13085;SDS011;6609;49.882;8.664;2022-11-15T13:46:47;2.73;;;0.93;;
13085;SDS011;6609;49.882;8.664;2022-11-15T13:49:13;2.13;;;1.10;;
13085;SDS011;6609;49.882;8.664;2022-11-15T13:51:43;1.70;;;1.17;;
13085;SDS011;6609;49.882;8.664;2022-11-15T13:54:16;2.47;;;1.10;;
13085;SDS011;6609;49.882;8.664;2022-11-15T13:56:47;0.97;;;0.90;;
13085;SDS011;6609;49.882;8.664;2022-11-15T13:59:17;2.07;;;1.10;;
13085;SDS011;6609;49.882;8.664;2022-11-15T14:01:48;3.63;;;1.30;;
13085;SDS011;6609;49.882;8.664;2022-11-15T14:04:18;2.77;;;0.93;;
13085;SDS011;6609;49.882;8.664;2022-11-15T14:06:47;1.97;;;1.30;;
13085;SDS011;6609;49.882;8.664;2022-11-15T14:12:23;2.50;;;1.40;;
13085;SDS011;6609;49.882;8.664;2022-11-15T14:14:53;1.60;;;1.50;;
13085;SDS011;6609;49.882;8.664;2022-11-15T14:17:21;3.27;;;1.30;;
13085;SDS011;6609;49.882;8.664;2022-11-15T14:20:01;2.33;;;1.20;;
13085;SDS011;6609;49.882;8.664;2022-11-15T14:22:28;2.47;;;1.20;;
13085;SDS011;6609;49.882;8.664;2022-11-15T14:25:13;6.53;;;1.30;;
13085;SDS011;6609;49.882;8.664;2022-11-15T14:27:42;1.73;;;1.20;;
13085;SDS011;6609;49.882;8.664;2022-11-15T14:30:13;2.33;;;1.33;;
13085;SDS011;6609;49.882;8.664;2022-11-15T14:32:43;1.80;;;0.97;;
13085;SDS011;6609;49.882;8.664;2022-11-15T14:35:14;2.00;;;1.00;;
13085;SDS011;6609;49.882;8.664;2022-11-15T14:37:42;4.87;;;1.20;;
13085;SDS011;6609;49.882;8.664;2022-11-15T14:40:13;1.47;;;1.13;;
13085;SDS011;6609;49.882;8.664;2022-11-15T14:42:41;2.40;;;1.00;;
13085;SDS011;6609;49.882;8.664;2022-11-15T14:45:09;2.53;;;1.30;;
13085;SDS011;6609;49.882;8.664;2022-11-15T14:47:39;4.23;;;2.27;;
13085;SDS011;6609;49.882;8.664;2022-11-15T14:50:05;2.70;;;1.30;;
13085;SDS011;6609;49.882;8.664;2022-11-15T14:52:36;2.57;;;1.10;;
13085;SDS011;6609;49.882;8.664;2022-11-15T14:55:03;6.10;;;1.70;;
13085;SDS011;6609;49.882;8.664;2022-11-15T14:57:42;3.00;;;1.20;;
13085;SDS011;6609;49.882;8.664;2022-11-15T15:00:10;1.17;;;1.07;;
13085;SDS011;6609;49.882;8.664;2022-11-15T15:02:37;1.57;;;1.07;;
13085;SDS011;6609;49.882;8.664;2022-11-15T15:05:10;1.73;;;1.37;;
13085;SDS011;6609;49.882;8.664;2022-11-15T15:07:40;3.33;;;1.80;;
13085;SDS011;6609;49.882;8.664;2022-11-15T15:10:07;1.83;;;1.40;;
13085;SDS011;6609;49.882;8.664;2022-11-15T15:12:36;2.73;;;1.50;;
13085;SDS011;6609;49.882;8.664;2022-11-15T15:15:03;2.13;;;1.30;;
13085;SDS011;6609;49.882;8.664;2022-11-15T15:17:30;2.53;;;1.63;;
13085;SDS011;6609;49.882;8.664;2022-11-15T15:19:57;3.03;;;1.60;;
13085;SDS011;6609;49.882;8.664;2022-11-15T15:22:23;3.47;;;1.70;;
13085;SDS011;6609;49.882;8.664;2022-11-15T15:24:54;4.13;;;1.40;;
13085;SDS011;6609;49.882;8.664;2022-11-15T15:27:20;2.70;;;1.73;;
13085;SDS011;6609;49.882;8.664;2022-11-15T15:29:49;3.90;;;1.67;;
13085;SDS011;6609;49.882;8.664;2022-11-15T15:32:15;2.67;;;1.77;;
13085;SDS011;6609;49.882;8.664;2022-11-15T15:34:42;3.87;;;1.67;;
13085;SDS011;6609;49.882;8.664;2022-11-15T15:37:12;4.70;;;2.13;;
13085;SDS011;6609;49.882;8.664;2022-11-15T15:39:48;2.43;;;2.07;;
13085;SDS011;6609;49.882;8.664;2022-11-15T15:42:15;2.57;;;1.83;;
13085;SDS011;6609;49.882;8.664;2022-11-15T15:44:42;2.50;;;1.80;;
13085;SDS011;6609;49.882;8.664;2022-11-15T15:47:11;4.90;;;2.80;;